الصفحة الرئيسية
METAR-TAF:

METAR-TAF

مطار :

مطار ليوبليانا الدولي

ليوبليانا, سلوفينيا

دائرة عرض: 46-13N, خط طول: 014-29E, ارتفاع: 385 متر

مراقبة الطقس الحالي

تاريخ ووقت الإصدار 32 دقيقة قبل الساعة 15:00UTC
ريح 13 عقدة من الشرق
درجة الحرارة 18°درجة مئوية
الرطوبة 24%
ضغط 1026 hPa
الرؤية 10 كم أو أكثر
الغيوم لا تقل 1500 م ولا وجود لمزنة ركامية السحاب الأسود

METAR: LJLJ 061500Z 10013KT CAVOK 18/M03 Q1026 NOSIG

زمن: 17:32 (15:32 UTC)

توقعات

تاريخ ووقت الإصدار 4ساعات و 32 دقيقة قبل الساعة 11:00UTC
التوقعات صالحة من06 الساعة 12 UTC إلى 07 الساعة 12 UTC
ريح 5 عقدة من الشرق/الجنوب الشرقي
الرؤية 10 كم أو أكثر
الغيوم لا تقل 1500 م ولا وجود لمزنة ركامية السحاب الأسود

TAF: LJLJ 061100Z 0612/0712 12005KT CAVOK

أرصاد الطقس والتوقعات من أكثر من 4000 مطار (تقارير الطقس للمطار METAR والتنبؤ بالطقس بالمطارTAF).

المحطات المتاحة هي النقط الصفراء والحمراء على الخريطة.

حرك المؤشر فوق النقطة لمعرفة اسم المحطة.

ثم انقر لمعرفة أرصاد وتوقعات الطقس.

لتغيير الخارطة: اضغط على الأزرار الخضراء مع رمز الصليب الأسود للتكبير. على الزر الأخضر مع شرطة للتصغير، أو على الأسهم الخضراء للخرائط المجاورة.


METAR-TAF: